M I D A S
Marine Information and Data Acquisition System
Tripno 1519 of the Zeeleeuw from 2008-07-15 08:24:35 to 2008-07-15 13:17:33
Back to CruiseResearch ActivitiesStationsMapUnderway DataData graphs

EquipmentUnitsComment
TimeDGPSUTC
LatitudeDGPSDM.mWGS84
LongitudeDGPSDM.mWGS84
HeadingGyrodeg 
SOGDGPSknotsSpeed over ground
COGDGPSdegCourse over ground
DepthEcho soundermeters200 kHz
Missing or incorrect values are displayed as -999
Navigation data collected by the RV Zeeleeuw from 2008-07-15 08:26:28 to 2008-07-15 13:18:59
                                                                                    Next 1000 lines
Time Latitude Longitude Heading SOG COG Depth
2008-07-15 08:26:38 51°13.624 2°56.045 111 1.1 284 -999
2008-07-15 08:26:43 51°13.625 2°56.041 111 1.7 295 -999
2008-07-15 08:26:48 51°13.626 2°56.037 111.4 2.2 292 -999
2008-07-15 08:26:53 51°13.627 2°56.031 112 2.6 294 8.3
2008-07-15 08:26:58 51°13.629 2°56.026 112.8 3 294 -999
2008-07-15 08:27:03 51°13.631 2°56.019 113.3 3.3 295 -999
2008-07-15 08:27:08 51°13.633 2°56.012 113.7 3.6 296 -999
2008-07-15 08:27:13 51°13.635 2°56.004 113.7 3.9 294 -999
2008-07-15 08:27:18 51°13.638 2°55.996 113.4 4.1 295 -999
2008-07-15 08:27:23 51°13.64 2°55.987 113.2 4.2 293 -999
2008-07-15 08:27:28 51°13.643 2°55.979 113.2 4.3 294 -999
2008-07-15 08:27:33 51°13.645 2°55.97 113.2 4.5 293 -999
2008-07-15 08:27:38 51°13.648 2°55.961 113.2 4.6 294 -999
2008-07-15 08:27:43 51°13.65 2°55.951 113.7 4.7 293 -999
2008-07-15 08:27:48 51°13.653 2°55.941 114.1 4.8 294 -999
2008-07-15 08:27:53 51°13.656 2°55.932 114.7 4.9 294 -999
2008-07-15 08:27:58 51°13.659 2°55.921 115.5 5 295 -999
2008-07-15 08:28:03 51°13.661 2°55.911 116.4 5 296 -999
2008-07-15 08:28:08 51°13.664 2°55.901 117.4 5 297 -999
2008-07-15 08:28:13 51°13.668 2°55.892 118.4 5 298 -999
2008-07-15 08:28:18 51°13.671 2°55.882 119.4 5 298 -999
2008-07-15 08:28:23 51°13.674 2°55.872 119.9 5 300 -999
2008-07-15 08:28:28 51°13.678 2°55.863 120 5 300 -999
2008-07-15 08:28:33 51°13.681 2°55.854 120 4.6 301 -999
2008-07-15 08:28:38 51°13.684 2°55.845 120 4.4 300 -999
2008-07-15 08:28:43 51°13.687 2°55.837 119.7 4.4 301 -999
2008-07-15 08:28:48 51°13.691 2°55.829 118.8 4.4 300 -999
2008-07-15 08:28:53 51°13.694 2°55.82 117.8 4.5 300 -999
2008-07-15 08:28:58 51°13.697 2°55.811 116.6 4.5 299 -999
2008-07-15 08:29:03 51°13.699 2°55.802 115 4.5 297 -999
2008-07-15 08:29:08 51°13.702 2°55.793 112.7 4.5 296 -999
2008-07-15 08:29:13 51°13.704 2°55.785 110.5 4.2 294 -999
2008-07-15 08:29:18 51°13.707 2°55.777 108.5 3.9 292 -999
2008-07-15 08:29:23 51°13.708 2°55.769 106.5 3.7 291 -999
2008-07-15 08:29:28 51°13.71 2°55.762 104.8 3.5 289 -999
2008-07-15 08:29:33 51°13.711 2°55.755 103.2 3.3 288 -999
2008-07-15 08:29:38 51°13.713 2°55.748 101.9 3 287 -999
2008-07-15 08:29:43 51°13.714 2°55.743 100.4 2.8 286 14.7
2008-07-15 08:29:48 51°13.715 2°55.738 98.9 2.4 286 14.3
2008-07-15 08:29:53 51°13.715 2°55.734 97.3 1.9 288 14
2008-07-15 08:29:58 51°13.716 2°55.731 95.1 1.3 291 13.5
2008-07-15 08:30:03 51°13.716 2°55.73 92.4 0.5 321 13.3
2008-07-15 08:30:08 51°13.717 2°55.731 88.2 0.6 25 13.2
2008-07-15 08:30:13 51°13.718 2°55.732 82 1 48 13.2
2008-07-15 08:30:18 51°13.719 2°55.735 75 1.5 52 13.3
2008-07-15 08:30:23 51°13.721 2°55.738 67.5 1.6 48 13.4
2008-07-15 08:30:28 51°13.722 2°55.74 60.1 1.7 46 13.6
2008-07-15 08:30:33 51°13.724 2°55.743 52.9 1.7 42 13.6
2008-07-15 08:30:38 51°13.726 2°55.745 48.6 1.6 37 13.5
2008-07-15 08:30:43 51°13.727 2°55.747 44.2 1.4 35 13.4
2008-07-15 08:30:48 51°13.728 2°55.748 41 0.8 31 13.8
2008-07-15 08:30:53 51°13.729 2°55.748 37.9 0.3 10 14
2008-07-15 08:30:58 51°13.728 2°55.747 34.5 0.3 230 13.9
2008-07-15 08:31:03 51°13.728 2°55.746 31.4 0.8 222 13.9
2008-07-15 08:31:08 51°13.726 2°55.745 28.9 1.2 213 13.7
2008-07-15 08:31:13 51°13.725 2°55.743 26.8 1.3 213 13.3
2008-07-15 08:31:18 51°13.723 2°55.742 24.6 1.1 210 -999
2008-07-15 08:31:23 51°13.722 2°55.741 22.1 0.9 213 -999
2008-07-15 08:31:28 51°13.722 2°55.74 19.4 0.5 211 -999
2008-07-15 08:31:33 51°13.722 2°55.74 16.3 0.2 294 -999
2008-07-15 08:31:38 51°13.723 2°55.74 12.2 0.6 353 -999
2008-07-15 08:31:43 51°13.724 2°55.74 6.8 1 355 -999
2008-07-15 08:31:48 51°13.726 2°55.739 0.2 1.5 352 -999
2008-07-15 08:31:53 51°13.729 2°55.738 353.3 1.8 347 -999
2008-07-15 08:31:58 51°13.731 2°55.737 346.3 2.1 341 -999
2008-07-15 08:32:03 51°13.735 2°55.734 341.3 2.8 337 4.8
2008-07-15 08:32:08 51°13.739 2°55.73 336.4 3.6 332 -999
2008-07-15 08:32:13 51°13.744 2°55.725 331.2 4.3 325 4.5
2008-07-15 08:32:18 51°13.75 2°55.718 325.9 4.9 325 12.2
2008-07-15 08:32:23 51°13.756 2°55.711 323.8 5.4 323 12.5
2008-07-15 08:32:28 51°13.762 2°55.703 322.9 5.9 324 12.4
2008-07-15 08:32:33 51°13.77 2°55.695 323.6 6.2 325 12.3
2008-07-15 08:32:38 51°13.777 2°55.687 324.3 6.3 324 12.1
2008-07-15 08:32:43 51°13.784 2°55.679 325.1 6.4 326 11.7
2008-07-15 08:32:48 51°13.791 2°55.671 326.4 6.4 326 12
2008-07-15 08:32:53 51°13.799 2°55.663 327.3 6.5 328 12.3
2008-07-15 08:32:58 51°13.807 2°55.656 328.1 6.5 328 12.5
2008-07-15 08:33:03 51°13.814 2°55.648 328.7 6.5 329 12.6
2008-07-15 08:33:08 51°13.822 2°55.641 329.2 6.6 330 12.6
2008-07-15 08:33:13 51°13.83 2°55.634 329.9 6.6 332 12.6
2008-07-15 08:33:18 51°13.838 2°55.627 330.7 6.6 330 12.5
2008-07-15 08:33:23 51°13.847 2°55.62 330.9 6.7 332 12.5
2008-07-15 08:33:28 51°13.855 2°55.613 331.5 6.7 332 12.5
2008-07-15 08:33:33 51°13.863 2°55.606 332.4 6.7 334 12.5
2008-07-15 08:33:38 51°13.872 2°55.6 333.6 6.7 334 12.5
2008-07-15 08:33:43 51°13.88 2°55.593 334 6.8 333 12.5
2008-07-15 08:33:48 51°13.888 2°55.586 333.8 6.8 334 12.5
2008-07-15 08:33:53 51°13.897 2°55.58 333.7 6.8 334 12.5
2008-07-15 08:33:58 51°13.905 2°55.573 333.7 6.8 334 12.5
2008-07-15 08:34:03 51°13.914 2°55.566 333.8 6.8 333 12.5
2008-07-15 08:34:08 51°13.922 2°55.56 333.7 6.7 334 12.7
2008-07-15 08:34:13 51°13.93 2°55.553 333.8 6.7 333 12.7
2008-07-15 08:34:18 51°13.938 2°55.547 334.3 6.6 334 12.6
2008-07-15 08:34:23 51°13.947 2°55.54 334.6 6.6 333 12.6
2008-07-15 08:34:28 51°13.955 2°55.534 334.5 6.5 334 12.6
2008-07-15 08:34:33 51°13.963 2°55.528 334.3 6.5 335 12.6
2008-07-15 08:34:38 51°13.971 2°55.521 334.9 6.5 335 12.6
2008-07-15 08:34:43 51°13.979 2°55.515 335.2 6.4 335 12.5
2008-07-15 08:34:48 51°13.987 2°55.509 335.1 6.4 334 12.5
2008-07-15 08:34:53 51°13.995 2°55.503 334.5 6.4 335 12.5
2008-07-15 08:34:58 51°14.003 2°55.497 334.4 6.4 334 12.5
2008-07-15 08:35:03 51°14.011 2°55.491 334.2 6.4 334 12.5
2008-07-15 08:35:08 51°14.019 2°55.485 333.8 6.3 334 12.5
2008-07-15 08:35:13 51°14.027 2°55.479 333.9 6.3 334 12.5
2008-07-15 08:35:18 51°14.035 2°55.473 334.4 6.3 335 12.5
2008-07-15 08:35:23 51°14.042 2°55.467 334.7 6.3 334 12.4
2008-07-15 08:35:28 51°14.05 2°55.461 334.7 6.3 334 12.5
2008-07-15 08:35:33 51°14.058 2°55.455 334.5 6.3 334 12.5
2008-07-15 08:35:38 51°14.066 2°55.449 334.5 6.3 335 12.3
2008-07-15 08:35:43 51°14.074 2°55.443 334.7 6.3 335 12.5
2008-07-15 08:35:48 51°14.082 2°55.437 335.2 6.3 335 12.5
2008-07-15 08:35:53 51°14.09 2°55.431 335.4 6.4 336 12.4
2008-07-15 08:35:58 51°14.098 2°55.425 335.4 6.8 334 12.1
2008-07-15 08:36:03 51°14.107 2°55.418 334.5 7.2 334 12.3
2008-07-15 08:36:08 51°14.117 2°55.41 334.1 7.5 332 12.5
2008-07-15 08:36:13 51°14.126 2°55.402 333.8 7.8 333 12.5
2008-07-15 08:36:18 51°14.136 2°55.394 333.5 8.1 331 12.5
2008-07-15 08:36:23 51°14.146 2°55.385 332.5 8.3 332 12.5
2008-07-15 08:36:28 51°14.157 2°55.376 332.3 8.4 331 12.5
2008-07-15 08:36:33 51°14.167 2°55.366 332.3 8.6 330 12.5
2008-07-15 08:36:38 51°14.177 2°55.356 331.6 8.8 329 12.5
2008-07-15 08:36:43 51°14.188 2°55.345 330.1 9.1 326 12.4
2008-07-15 08:36:48 51°14.199 2°55.333 327.9 9.3 325 12.5
2008-07-15 08:36:53 51°14.209 2°55.321 326.5 9.4 324 12.6
2008-07-15 08:36:58 51°14.219 2°55.308 325.6 9.6 321 12.4
2008-07-15 08:37:03 51°14.229 2°55.294 323.2 9.6 319 11.8
2008-07-15 08:37:08 51°14.239 2°55.28 320.9 9.7 318 12.2
2008-07-15 08:37:13 51°14.249 2°55.265 319.2 9.8 316 12.4
2008-07-15 08:37:18 51°14.259 2°55.25 317.8 9.9 316 12.5
2008-07-15 08:37:23 51°14.268 2°55.235 317.2 9.8 315 12.1
2008-07-15 08:37:28 51°14.278 2°55.219 316.4 9.9 313 11.9
2008-07-15 08:37:33 51°14.287 2°55.203 314.9 10 313 11.7
2008-07-15 08:37:38 51°14.297 2°55.186 314.2 10 313 11.6
2008-07-15 08:37:43 51°14.306 2°55.17 314 10.1 313 11.7
2008-07-15 08:37:48 51°14.316 2°55.154 313.9 10.1 314 12
2008-07-15 08:37:53 51°14.326 2°55.138 314.1 10.2 314 12.2
2008-07-15 08:37:58 51°14.336 2°55.121 314.1 10.4 314 12.3
2008-07-15 08:38:03 51°14.346 2°55.105 314.4 10.5 315 12.6
2008-07-15 08:38:08 51°14.356 2°55.088 314.9 10.6 313 12.8
2008-07-15 08:38:13 51°14.367 2°55.071 314 10.7 314 12.6
2008-07-15 08:38:18 51°14.377 2°55.055 312.7 10.7 317 12.2
2008-07-15 08:38:23 51°14.389 2°55.04 314.1 10.8 323 12.3
2008-07-15 08:38:28 51°14.402 2°55.026 317.6 10.8 325 11.7
2008-07-15 08:38:33 51°14.414 2°55.012 319.3 11.1 325 11.8
2008-07-15 08:38:38 51°14.427 2°54.999 319.9 11.2 329 11.7
2008-07-15 08:38:43 51°14.441 2°54.988 322.9 11.4 332 11.3
2008-07-15 08:38:48 51°14.456 2°54.977 326.6 11.7 336 11.8
2008-07-15 08:38:53 51°14.471 2°54.967 330.3 11.9 338 11.9
2008-07-15 08:38:58 51°14.487 2°54.957 331.9 12.1 338 11.5
2008-07-15 08:39:03 51°14.503 2°54.948 334.4 12.2 340 11.5
2008-07-15 08:39:08 51°14.519 2°54.938 335.6 12.3 338 11.4
2008-07-15 08:39:13 51°14.535 2°54.928 335.2 12.4 339 11.2
2008-07-15 08:39:18 51°14.551 2°54.918 334.8 12.5 339 11.1
2008-07-15 08:39:23 51°14.567 2°54.909 334.9 12.4 340 11.2
2008-07-15 08:39:28 51°14.583 2°54.899 335.4 12.6 339 11.2
2008-07-15 08:39:33 51°14.599 2°54.889 335.7 12.5 340 11
2008-07-15 08:39:38 51°14.616 2°54.88 336 12.4 340 11.1
2008-07-15 08:39:43 51°14.632 2°54.87 335.7 12.5 341 11
2008-07-15 08:39:48 51°14.648 2°54.86 336 12.5 338 11
2008-07-15 08:39:53 51°14.664 2°54.853 335.4 12.5 341 11
2008-07-15 08:39:58 51°14.681 2°54.842 336 12.6 341 11.1
2008-07-15 08:40:03 51°14.697 2°54.832 336.4 12.5 340 10.8
2008-07-15 08:40:08 51°14.713 2°54.822 336.7 12.5 339 10.9
2008-07-15 08:40:13 51°14.729 2°54.811 336 12.4 336 10.9
2008-07-15 08:40:18 51°14.745 2°54.799 333.2 12.4 335 11
2008-07-15 08:40:22 51°14.757 2°54.789 331.2 12.4 333 10.9
2008-07-15 08:40:27 51°14.772 2°54.776 329.5 12.3 331 10.9
2008-07-15 08:40:32 51°14.787 2°54.763 327.2 12.3 331 10.9
2008-07-15 08:40:37 51°14.801 2°54.749 326.4 12.2 329 10.9
2008-07-15 08:40:42 51°14.816 2°54.735 325.5 12.2 329 10.7
2008-07-15 08:40:47 51°14.83 2°54.72 325.1 12.2 328 10.9
2008-07-15 08:40:52 51°14.844 2°54.706 324.5 12.2 328 10.9
2008-07-15 08:40:57 51°14.859 2°54.692 324.3 12.2 328 10.8
2008-07-15 08:41:02 51°14.873 2°54.678 324.5 12.2 329 10.9
2008-07-15 08:41:07 51°14.887 2°54.663 324.4 12.1 328 10.9
2008-07-15 08:41:12 51°14.902 2°54.649 324.6 12.2 329 10.7
2008-07-15 08:41:17 51°14.916 2°54.636 324.8 12.2 329 10.8
2008-07-15 08:41:22 51°14.931 2°54.621 324.9 12.2 328 10.7
2008-07-15 08:41:26 51°14.943 2°54.61 324.5 12.2 329 10.5
2008-07-15 08:41:31 51°14.957 2°54.597 325.6 12.2 331 10.6
2008-07-15 08:41:36 51°14.972 2°54.583 326.3 12.2 330 10.3
2008-07-15 08:41:41 51°14.987 2°54.57 326.3 12.2 330 10.1
2008-07-15 08:41:46 51°15.001 2°54.556 325.5 12.1 329 10.2
2008-07-15 08:41:51 51°15.015 2°54.542 325.1 12.1 328 10
2008-07-15 08:41:56 51°15.03 2°54.528 324.5 12.1 329 10
2008-07-15 08:42:01 51°15.044 2°54.514 324.6 12.1 329 10.2
2008-07-15 08:42:06 51°15.059 2°54.501 324.7 12 329 9.9
2008-07-15 08:42:11 51°15.073 2°54.487 325.2 12.1 329 9.9
2008-07-15 08:42:15 51°15.085 2°54.477 325.5 12.1 331 9.8
2008-07-15 08:42:20 51°15.099 2°54.464 326.1 12 331 10
2008-07-15 08:42:25 51°15.114 2°54.453 327.2 12.1 333 9.7
2008-07-15 08:42:30 51°15.129 2°54.441 328.4 12.1 333 10
2008-07-15 08:42:35 51°15.144 2°54.429 328.9 12.1 333 9.8
2008-07-15 08:42:40 51°15.159 2°54.416 328.9 12.1 332 10.1
2008-07-15 08:42:45 51°15.174 2°54.404 328.7 12.2 333 10.1
2008-07-15 08:42:50 51°15.189 2°54.391 328.7 12.2 332 10.3
2008-07-15 08:42:55 51°15.204 2°54.378 327.9 12.2 332 10.3
2008-07-15 08:43:00 51°15.219 2°54.366 327.7 12.2 332 10.5
2008-07-15 08:43:05 51°15.233 2°54.353 327.4 12.1 332 10.3
2008-07-15 08:43:10 51°15.249 2°54.341 328.6 12.3 333 10.5
2008-07-15 08:43:14 51°15.261 2°54.33 329.1 12.3 332 10.5
2008-07-15 08:43:19 51°15.276 2°54.319 329.8 12.2 333 10.7
2008-07-15 08:43:25 51°15.294 2°54.304 329.7 12.2 333 10.6
2008-07-15 08:43:30 51°15.309 2°54.292 329.8 12.3 333 10.8
2008-07-15 08:43:34 51°15.321 2°54.282 330.2 12.3 333 10.8
2008-07-15 08:43:39 51°15.337 2°54.27 330.3 12.3 334 10.8
2008-07-15 08:43:45 51°15.356 2°54.256 330.2 12.4 335 11
2008-07-15 08:43:49 51°15.368 2°54.247 330.1 12.3 334 10.7
2008-07-15 08:43:54 51°15.383 2°54.235 330.9 12.3 333 10.8
2008-07-15 08:43:59 51°15.398 2°54.223 330.5 12.3 334 10.8
2008-07-15 08:44:04 51°15.413 2°54.21 329.8 12.3 332 11.1
2008-07-15 08:44:10 51°15.432 2°54.196 330.1 12.3 334 11.3
2008-07-15 08:44:14 51°15.444 2°54.186 329.1 12.2 332 11.4
2008-07-15 08:44:19 51°15.459 2°54.173 328 12.2 331 11.2
2008-07-15 08:44:24 51°15.473 2°54.159 327.2 12.2 330 11.4
2008-07-15 08:44:30 51°15.491 2°54.143 326.1 12.3 330 11.5
2008-07-15 08:44:34 51°15.502 2°54.132 326 12.1 330 11.3
2008-07-15 08:44:39 51°15.517 2°54.119 326.5 12.2 331 11.4
2008-07-15 08:44:44 51°15.532 2°54.106 326.8 12.3 332 11.7
2008-07-15 08:44:49 51°15.547 2°54.092 326.4 12.2 330 11.5
2008-07-15 08:44:54 51°15.561 2°54.079 326.8 12.2 331 11.4
2008-07-15 08:44:59 51°15.576 2°54.065 326.5 12.2 329 11.6
2008-07-15 08:45:04 51°15.591 2°54.052 326.5 12.2 331 11.9
2008-07-15 08:45:09 51°15.605 2°54.039 326.5 12.2 330 11.9
2008-07-15 08:45:14 51°15.62 2°54.026 326.6 12.2 331 11.7
2008-07-15 08:45:19 51°15.635 2°54.013 327.2 12.3 331 12.1
2008-07-15 08:45:25 51°15.652 2°53.997 326.6 12.2 330 11.8
2008-07-15 08:45:30 51°15.667 2°53.983 326.6 12.2 330 11.9
2008-07-15 08:45:34 51°15.679 2°53.972 326.2 12.2 330 12
2008-07-15 08:45:39 51°15.693 2°53.959 325.9 12.2 329 12
2008-07-15 08:45:45 51°15.711 2°53.942 325.9 12.1 329 12.2
2008-07-15 08:45:49 51°15.722 2°53.931 325.4 12.1 328 12.2
2008-07-15 08:45:54 51°15.736 2°53.916 324.7 12.1 328 12.2
2008-07-15 08:45:59 51°15.751 2°53.902 324.5 12.2 328 12.4
2008-07-15 08:46:05 51°15.768 2°53.886 325 12.2 330 12
2008-07-15 08:46:10 51°15.783 2°53.872 326.1 12.3 330 12.3
2008-07-15 08:46:14 51°15.795 2°53.861 325.8 12.2 328 12.2
2008-07-15 08:46:19 51°15.809 2°53.847 325.7 12.2 330 12.3
2008-07-15 08:46:25 51°15.827 2°53.831 325.7 12.2 330 12.4
2008-07-15 08:46:30 51°15.841 2°53.817 326.1 12.2 329 12.4
2008-07-15 08:46:34 51°15.853 2°53.806 325.8 12.2 329 12.5
2008-07-15 08:46:39 51°15.867 2°53.792 326.3 12.2 330 12.6
2008-07-15 08:46:44 51°15.882 2°53.779 326.5 12.2 330 12.7
2008-07-15 08:46:50 51°15.9 2°53.763 327.4 12.3 331 12.6
2008-07-15 08:46:54 51°15.911 2°53.752 326.8 12.2 329 12.5
2008-07-15 08:46:59 51°15.926 2°53.738 326.2 12.2 330 12.7
2008-07-15 08:47:04 51°15.941 2°53.725 326.4 12.2 329 12.5
2008-07-15 08:47:09 51°15.955 2°53.712 326.5 12.2 331 12.6
2008-07-15 08:47:15 51°15.973 2°53.695 326.7 12.2 330 12.6
2008-07-15 08:47:19 51°15.985 2°53.685 326.7 12.2 331 12.7
2008-07-15 08:47:24 51°16 2°53.671 326.9 12.3 330 12.8
2008-07-15 08:47:30 51°16.017 2°53.655 326.9 12.2 331 12.7
2008-07-15 08:47:34 51°16.029 2°53.645 326.4 12.2 330 12.8
2008-07-15 08:47:39 51°16.043 2°53.63 325.3 12.2 329 12.7
2008-07-15 08:47:44 51°16.058 2°53.617 324.7 12.1 329 12.8
2008-07-15 08:47:49 51°16.072 2°53.603 324.7 12.1 329 12.8
2008-07-15 08:47:54 51°16.086 2°53.588 324.2 12.1 328 12.7
2008-07-15 08:47:59 51°16.101 2°53.575 324.9 12.2 330 12.7
2008-07-15 08:48:04 51°16.115 2°53.562 325.8 12.1 330 12.7
2008-07-15 08:48:10 51°16.133 2°53.545 325.7 12.2 330 12.9
2008-07-15 08:48:14 51°16.145 2°53.534 325.7 12.2 330 12.9
2008-07-15 08:48:19 51°16.159 2°53.521 325.8 12.2 330 12.8
2008-07-15 08:48:25 51°16.177 2°53.505 326.1 12.2 330 12.9
2008-07-15 08:48:30 51°16.192 2°53.492 326.5 12.2 331 13
2008-07-15 08:48:34 51°16.204 2°53.481 326.7 12.2 330 12.9
2008-07-15 08:48:39 51°16.218 2°53.467 325.9 12.2 330 13.1
2008-07-15 08:48:44 51°16.233 2°53.453 325.8 12.2 329 13
2008-07-15 08:48:50 51°16.25 2°53.436 325.1 12.2 329 13.1
2008-07-15 08:48:54 51°16.262 2°53.426 325 12.1 330 12.9
2008-07-15 08:48:59 51°16.277 2°53.412 325.7 12.1 330 13
2008-07-15 08:49:04 51°16.292 2°53.4 326.5 12.2 332 13.2
2008-07-15 08:49:09 51°16.306 2°53.387 327.4 12.2 332 13.1
2008-07-15 08:49:15 51°16.325 2°53.373 328.6 12.2 333 13.1
2008-07-15 08:49:19 51°16.337 2°53.362 329 12.2 332 13.2
2008-07-15 08:49:24 51°16.352 2°53.35 329.4 12.2 334 13.2
2008-07-15 08:49:29 51°16.367 2°53.338 329.6 12.1 333 13.2
2008-07-15 08:49:34 51°16.382 2°53.327 330.1 12.1 335 13.3
2008-07-15 08:49:39 51°16.397 2°53.316 330.3 12 335 13.1
2008-07-15 08:49:44 51°16.412 2°53.304 330.4 11.8 334 13.1
2008-07-15 08:49:49 51°16.427 2°53.293 330.3 11.7 335 13.3
2008-07-15 08:49:54 51°16.441 2°53.282 329.9 11.5 334 13.1
2008-07-15 08:49:59 51°16.455 2°53.271 329.9 11.4 334 13.1
2008-07-15 08:50:04 51°16.469 2°53.26 329.4 11.3 333 13.2
2008-07-15 08:50:09 51°16.483 2°53.249 329.3 11.2 334 13
2008-07-15 08:50:14 51°16.497 2°53.238 329.1 11.2 333 13.2
2008-07-15 08:50:19 51°16.511 2°53.227 328.4 11.1 333 13.2
2008-07-15 08:50:25 51°16.527 2°53.214 328.2 11.1 333 13.3
2008-07-15 08:50:30 51°16.541 2°53.203 328.5 11.1 333 13.1
2008-07-15 08:50:34 51°16.552 2°53.194 328.8 11 334 13.1
2008-07-15 08:50:39 51°16.566 2°53.184 329.3 10.9 335 13.1
2008-07-15 08:50:44 51°16.579 2°53.173 329.6 10.9 335 13.3
2008-07-15 08:50:49 51°16.593 2°53.164 329.8 10.8 336 13
2008-07-15 08:50:54 51°16.606 2°53.153 330 10.7 334 12.9
2008-07-15 08:50:59 51°16.62 2°53.143 329.6 10.7 334 12.9
2008-07-15 08:51:04 51°16.633 2°53.133 329.5 10.6 334 13
2008-07-15 08:51:10 51°16.649 2°53.121 329.5 10.6 334 12.9
2008-07-15 08:51:14 51°16.659 2°53.112 329.4 10.7 334 13
2008-07-15 08:51:19 51°16.673 2°53.102 329.3 10.6 335 12.8
2008-07-15 08:51:24 51°16.686 2°53.093 329.7 10.7 336 13
2008-07-15 08:51:30 51°16.702 2°53.081 329.9 10.6 335 12.6
2008-07-15 08:51:34 51°16.713 2°53.073 329.9 10.6 334 12.7
2008-07-15 08:51:39 51°16.726 2°53.062 329.1 10.6 334 12.7
2008-07-15 08:51:44 51°16.739 2°53.052 329.1 10.6 333 12.5
2008-07-15 08:51:49 51°16.752 2°53.042 329 10.6 334 12.6
2008-07-15 08:51:55 51°16.768 2°53.03 329.5 10.6 334 12.5
2008-07-15 08:51:59 51°16.778 2°53.022 329.3 10.6 334 12.3
2008-07-15 08:52:04 51°16.791 2°53.011 329.3 10.5 333 12.1
2008-07-15 08:52:09 51°16.804 2°53.001 329.1 10.6 333 12
2008-07-15 08:52:15 51°16.82 2°52.988 329 10.5 334 11.1
2008-07-15 08:52:19 51°16.831 2°52.98 328.7 10.5 333 10.7
2008-07-15 08:52:25 51°16.846 2°52.968 328.5 10.4 333 10.2
2008-07-15 08:52:30 51°16.859 2°52.957 328.4 10.4 332 10.3
2008-07-15 08:52:34 51°16.869 2°52.949 328.3 10.5 334 10.5
2008-07-15 08:52:39 51°16.882 2°52.939 328.4 10.4 333 10.2
2008-07-15 08:52:44 51°16.895 2°52.929 329.1 10.4 334 10.4
2008-07-15 08:52:49 51°16.908 2°52.919 329.4 10.4 333 10.5
2008-07-15 08:52:54 51°16.921 2°52.908 329.2 10.5 334 10.4
2008-07-15 08:52:59 51°16.934 2°52.899 329.6 10.5 334 10.4
2008-07-15 08:53:05 51°16.95 2°52.887 329.6 10.5 335 10.8
2008-07-15 08:53:10 51°16.963 2°52.876 330.1 10.5 335 11
2008-07-15 08:53:14 51°16.974 2°52.868 330.1 10.5 334 10.9
2008-07-15 08:53:19 51°16.987 2°52.858 329.6 10.5 334 10.9
2008-07-15 08:53:25 51°17.003 2°52.846 329.7 10.5 334 11.2
2008-07-15 08:53:30 51°17.016 2°52.836 329.7 10.6 334 11.3
2008-07-15 08:53:34 51°17.026 2°52.827 329.6 10.5 334 11.2
2008-07-15 08:53:39 51°17.04 2°52.817 329.8 10.6 334 11.5
2008-07-15 08:53:44 51°17.053 2°52.807 330.1 10.6 335 11.5
2008-07-15 08:53:50 51°17.069 2°52.795 329.5 10.6 334 11.6
2008-07-15 08:53:55 51°17.082 2°52.785 329.5 10.5 335 11.5
2008-07-15 08:53:59 51°17.093 2°52.777 329.6 10.6 335 11.7
2008-07-15 08:54:05 51°17.109 2°52.765 329.6 10.6 335 11.4
2008-07-15 08:54:10 51°17.122 2°52.754 329.2 10.6 333 11.5
2008-07-15 08:54:14 51°17.132 2°52.746 328.8 10.5 333 11.3
2008-07-15 08:54:19 51°17.145 2°52.735 328.9 10.4 333 11.5
2008-07-15 08:54:25 51°17.161 2°52.722 328.5 10.5 333 11.6
2008-07-15 08:54:30 51°17.174 2°52.712 328.4 10.5 334 11.2
2008-07-15 08:54:34 51°17.184 2°52.704 328.6 10.5 333 11.4
2008-07-15 08:54:39 51°17.197 2°52.693 328.5 10.5 333 11.3
2008-07-15 08:54:45 51°17.213 2°52.681 328.9 10.5 333 11.3
2008-07-15 08:54:50 51°17.226 2°52.67 329 10.6 333 11.3
2008-07-15 08:54:54 51°17.236 2°52.662 329 10.6 334 11.4
2008-07-15 08:54:59 51°17.249 2°52.652 328.7 10.6 333 11.4
2008-07-15 08:55:05 51°17.265 2°52.64 329.3 10.6 334 11.4
2008-07-15 08:55:10 51°17.278 2°52.629 329.4 10.6 334 11.5
2008-07-15 08:55:14 51°17.289 2°52.621 328.8 10.5 333 11.4
2008-07-15 08:55:19 51°17.301 2°52.61 328.1 10.4 332 11.3
2008-07-15 08:55:25 51°17.317 2°52.597 327.3 10.6 332 11.8
2008-07-15 08:55:30 51°17.33 2°52.586 326.6 10.4 332 11.6
2008-07-15 08:55:34 51°17.34 2°52.577 326.7 10.5 332 11.8
2008-07-15 08:55:39 51°17.353 2°52.566 326.1 10.5 331 11.8
2008-07-15 08:55:44 51°17.365 2°52.554 325.8 10.5 330 11.9
2008-07-15 08:55:50 51°17.38 2°52.541 325.8 10.5 330 11.9
2008-07-15 08:55:55 51°17.393 2°52.529 326.4 10.6 331 11.9
2008-07-15 08:55:59 51°17.403 2°52.52 325.9 10.6 331 12.1
2008-07-15 08:56:04 51°17.416 2°52.509 325.8 10.5 331 12.2
2008-07-15 08:56:10 51°17.432 2°52.496 326 10.6 332 12.1
2008-07-15 08:56:14 51°17.442 2°52.487 326.5 10.5 332 11.8
2008-07-15 08:56:19 51°17.455 2°52.476 327.1 10.6 332 12
2008-07-15 08:56:25 51°17.47 2°52.463 326.5 10.5 331 11.7
2008-07-15 08:56:30 51°17.483 2°52.452 326.2 10.4 331 11.9
2008-07-15 08:56:34 51°17.493 2°52.443 326.5 10.4 331 11.9
2008-07-15 08:56:39 51°17.505 2°52.432 326 10.3 331 11.9
2008-07-15 08:56:44 51°17.518 2°52.421 325.9 10.3 331 11.9
2008-07-15 08:56:49 51°17.531 2°52.41 325.7 10.4 331 12.1
2008-07-15 08:56:54 51°17.543 2°52.398 325.7 10.5 331 12.3
2008-07-15 08:56:59 51°17.556 2°52.387 325.8 10.4 330 12.3
2008-07-15 08:57:05 51°17.571 2°52.373 326.1 10.6 331 12.2
2008-07-15 08:57:10 51°17.583 2°52.362 326 10.5 330 12.1
2008-07-15 08:57:14 51°17.594 2°52.353 326.6 10.6 331 12.1
2008-07-15 08:57:19 51°17.607 2°52.341 326.4 10.5 330 12.2
2008-07-15 08:57:25 51°17.622 2°52.327 326.3 10.6 330 12.1
2008-07-15 08:57:29 51°17.632 2°52.318 325.7 10.5 329 12
2008-07-15 08:57:34 51°17.645 2°52.306 325.3 10.6 330 12
2008-07-15 08:57:39 51°17.657 2°52.295 325.9 10.6 331 11.9
2008-07-15 08:57:44 51°17.67 2°52.283 326.7 10.6 332 12.1
2008-07-15 08:57:50 51°17.685 2°52.269 326.5 10.6 330 12.1
2008-07-15 08:57:55 51°17.698 2°52.258 326.2 10.5 330 11.7
2008-07-15 08:57:59 51°17.708 2°52.249 326.3 10.5 329 11.8
2008-07-15 08:58:04 51°17.721 2°52.238 326 10.6 330 11.9
2008-07-15 08:58:10 51°17.736 2°52.224 325.6 10.5 330 11.9
2008-07-15 08:58:14 51°17.747 2°52.215 325.7 10.6 331 12
2008-07-15 08:58:19 51°17.759 2°52.203 325.6 10.5 330 11.9
2008-07-15 08:58:25 51°17.774 2°52.189 325.9 10.5 331 12.1
2008-07-15 08:58:29 51°17.784 2°52.18 325.7 10.5 329 12.4
2008-07-15 08:58:35 51°17.799 2°52.166 325.3 10.5 330 12.3
2008-07-15 08:58:39 51°17.809 2°52.157 325.4 10.5 330 12.1
2008-07-15 08:58:44 51°17.822 2°52.145 325.8 10.4 330 12
2008-07-15 08:58:49 51°17.835 2°52.134 326.1 10.4 331 11.8
2008-07-15 08:58:55 51°17.85 2°52.12 326.4 10.6 332 12.2
2008-07-15 08:58:59 51°17.86 2°52.112 326.5 10.4 332 11.8
2008-07-15 08:59:05 51°17.875 2°52.098 326.7 10.2 330 12
2008-07-15 08:59:10 51°17.888 2°52.088 326.2 10.3 332 12
2008-07-15 08:59:14 51°17.898 2°52.079 325.6 10.4 331 12
2008-07-15 08:59:19 51°17.91 2°52.067 325.8 10.4 331 12.2
2008-07-15 08:59:25 51°17.925 2°52.055 326 10.3 332 11.8
2008-07-15 08:59:29 51°17.935 2°52.046 326.5 10.4 333 11.9
2008-07-15 08:59:34 51°17.948 2°52.035 326.3 10.4 331 12.1
2008-07-15 08:59:39 51°17.961 2°52.023 326.2 10.4 331 11.9
2008-07-15 08:59:45 51°17.976 2°52.01 326.4 10.4 331 12.3
2008-07-15 08:59:50 51°17.988 2°51.998 325.8 10.3 330 12.2
2008-07-15 08:59:55 51°18.001 2°51.987 325.8 10.4 330 12.1
2008-07-15 08:59:59 51°18.011 2°51.978 325.5 10.3 330 12.1
2008-07-15 09:00:05 51°18.026 2°51.964 325.8 10.4 331 12.3
2008-07-15 09:00:10 51°18.038 2°51.953 325.6 10.4 330 12.6
2008-07-15 09:00:14 51°18.048 2°51.944 326 10.3 331 12.3
2008-07-15 09:00:19 51°18.061 2°51.933 326 10.4 330 12.6
2008-07-15 09:00:24 51°18.074 2°51.922 326.2 10.4 332 12.3
2008-07-15 09:00:30 51°18.089 2°51.909 326.8 10.3 331 12.3
2008-07-15 09:00:35 51°18.101 2°51.898 326.7 10.3 332 12.5
2008-07-15 09:00:39 51°18.111 2°51.889 326.8 10.3 331 12.4
2008-07-15 09:00:44 51°18.124 2°51.878 326.5 10.4 331 12.6
2008-07-15 09:00:49 51°18.137 2°51.867 326.4 10.4 331 12.7
2008-07-15 09:00:55 51°18.152 2°51.853 326 10.4 330 12.7
2008-07-15 09:00:59 51°18.162 2°51.844 326.4 10.4 331 12.6
2008-07-15 09:01:05 51°18.177 2°51.831 326.6 10.4 330 12.8
2008-07-15 09:01:10 51°18.189 2°51.82 326.5 10.5 332 13
2008-07-15 09:01:14 51°18.199 2°51.811 326.4 10.5 330 12.8
2008-07-15 09:01:19 51°18.212 2°51.8 326.7 10.5 331 12.8
2008-07-15 09:01:25 51°18.228 2°51.787 327.3 10.6 332 12.9
2008-07-15 09:01:29 51°18.238 2°51.777 326.9 10.5 330 13
2008-07-15 09:01:34 51°18.251 2°51.766 326.1 10.6 331 12.9
2008-07-15 09:01:39 51°18.263 2°51.755 326.5 10.5 331 12.9
2008-07-15 09:01:45 51°18.279 2°51.742 326.9 10.5 332 13
2008-07-15 09:01:50 51°18.291 2°51.731 326.5 10.3 331 13.1
2008-07-15 09:01:54 51°18.301 2°51.722 326.7 10.3 331 13.2
2008-07-15 09:01:59 51°18.314 2°51.712 326.2 10.4 332 13.7
2008-07-15 09:02:05 51°18.329 2°51.698 325.9 10.4 331 13.6
2008-07-15 09:02:10 51°18.342 2°51.687 326.7 10.5 332 13.4
2008-07-15 09:02:14 51°18.352 2°51.678 327.2 10.4 331 13.4
2008-07-15 09:02:19 51°18.365 2°51.668 327.3 10.4 332 13.5
2008-07-15 09:02:25 51°18.38 2°51.654 326.9 10.5 333 14
2008-07-15 09:02:30 51°18.393 2°51.644 326.5 10.4 332 13.8
2008-07-15 09:02:34 51°18.403 2°51.635 326.9 10.3 331 13.5
2008-07-15 09:02:39 51°18.415 2°51.624 326.6 10.2 331 13.9
2008-07-15 09:02:44 51°18.428 2°51.613 325.7 10.3 331 14.3
2008-07-15 09:02:50 51°18.442 2°51.6 326.2 10.3 331 14.2
2008-07-15 09:02:55 51°18.455 2°51.589 326.7 10.4 332 14.5
2008-07-15 09:02:59 51°18.465 2°51.58 325.5 10.3 330 14.4
2008-07-15 09:03:05 51°18.48 2°51.568 325.9 10.4 332 14.3
2008-07-15 09:03:10 51°18.493 2°51.557 326.3 10.3 331 14.3
2008-07-15 09:03:14 51°18.503 2°51.548 325.7 10.3 332 14.9
2008-07-15 09:03:19 51°18.516 2°51.537 325.2 10.3 332 14.9
2008-07-15 09:03:24 51°18.528 2°51.526 325.6 10.2 332 14.7
2008-07-15 09:03:29 51°18.54 2°51.515 325.2 10.2 330 14.7
2008-07-15 09:03:34 51°18.552 2°51.504 325.1 10.2 331 14.6
2008-07-15 09:03:39 51°18.565 2°51.492 325.8 10.3 330 15.1
2008-07-15 09:03:45 51°18.58 2°51.479 326.1 10.3 331 15.4
2008-07-15 09:03:50 51°18.592 2°51.467 325.4 10.3 330 15.5
2008-07-15 09:03:54 51°18.603 2°51.458 325.4 10.5 332 15.7
2008-07-15 09:03:59 51°18.615 2°51.447 325.9 10.3 331 15.5
2008-07-15 09:04:05 51°18.63 2°51.434 326.4 10.4 332 15.6
2008-07-15 09:04:10 51°18.643 2°51.423 326.5 10.4 331 15.7
2008-07-15 09:04:14 51°18.653 2°51.414 325.6 10.5 331 15.8
2008-07-15 09:04:19 51°18.666 2°51.402 325.7 10.4 331 15.5
2008-07-15 09:04:25 51°18.681 2°51.39 326.8 10.3 333 15.2
2008-07-15 09:04:30 51°18.693 2°51.379 326 10.2 329 15.3
2008-07-15 09:04:34 51°18.703 2°51.37 325.2 10.3 331 15.5
2008-07-15 09:04:39 51°18.716 2°51.358 325.5 10.4 330 15.8
2008-07-15 09:04:44 51°18.728 2°51.347 325.9 10.4 331 16
2008-07-15 09:04:50 51°18.743 2°51.333 326 10.5 330 16.1
2008-07-15 09:04:55 51°18.756 2°51.322 326.3 10.5 331 16.2
2008-07-15 09:04:59 51°18.766 2°51.313 325.7 10.5 331 16.4
2008-07-15 09:05:05 51°18.782 2°51.299 325.8 10.5 331 16.2
2008-07-15 09:05:10 51°18.794 2°51.287 325.6 10.5 329 16.2
2008-07-15 09:05:14 51°18.804 2°51.278 325.2 10.5 330 16.2
2008-07-15 09:05:19 51°18.817 2°51.267 325.6 10.5 331 16
2008-07-15 09:05:24 51°18.83 2°51.255 325.6 10.5 331 16.2
2008-07-15 09:05:29 51°18.843 2°51.244 325.8 10.5 332 16.2
2008-07-15 09:05:35 51°18.858 2°51.231 325.8 10.7 333 16.2
2008-07-15 09:05:39 51°18.868 2°51.221 325.8 10.5 331 16.1
2008-07-15 09:05:45 51°18.884 2°51.208 326.3 10.5 332 16.1
2008-07-15 09:05:50 51°18.896 2°51.197 325.8 10.4 330 16.3
2008-07-15 09:05:54 51°18.906 2°51.188 325.8 10.4 331 16.3
2008-07-15 09:05:59 51°18.919 2°51.177 326.1 10.3 331 16.6
2008-07-15 09:06:05 51°18.934 2°51.164 326.5 10.2 331 16.5
2008-07-15 09:06:10 51°18.947 2°51.154 326.2 10.2 331 16.6
2008-07-15 09:06:14 51°18.956 2°51.146 326.6 10 332 16.7
2008-07-15 09:06:19 51°18.968 2°51.136 326.2 9.8 331 16.5
2008-07-15 09:06:25 51°18.983 2°51.124 326.3 9.6 333 16.6
2008-07-15 09:06:30 51°18.994 2°51.114 325.4 9.5 329 16.6
2008-07-15 09:06:34 51°19.003 2°51.106 324.7 9.3 333 16.2
2008-07-15 09:06:39 51°19.014 2°51.097 325.5 9 333 16.3
2008-07-15 09:06:45 51°19.027 2°51.087 326.1 9 334 16.6
2008-07-15 09:06:50 51°19.038 2°51.078 325.8 8.8 333 16.5
2008-07-15 09:06:54 51°19.047 2°51.072 326.3 8.7 334 16.5
2008-07-15 09:06:59 51°19.058 2°51.063 326.3 8.7 335 16.7
2008-07-15 09:07:05 51°19.071 2°51.053 325.9 8.6 333 16.8
2008-07-15 09:07:10 51°19.081 2°51.044 325.3 8.5 332 16.3
2008-07-15 09:07:14 51°19.089 2°51.037 325.5 8.5 332 16.4
2008-07-15 09:07:19 51°19.1 2°51.028 325.5 8.5 332 16.3
2008-07-15 09:07:24 51°19.11 2°51.019 325.8 8.5 332 16.6
2008-07-15 09:07:29 51°19.12 2°51.011 325.4 8.5 332 16.8
2008-07-15 09:07:35 51°19.132 2°51 325.1 8.3 332 16.5
2008-07-15 09:07:39 51°19.14 2°50.992 323 8 326 16.4
2008-07-15 09:07:45 51°19.151 2°50.98 319.2 8 325 16.7
2008-07-15 09:07:50 51°19.159 2°50.968 316.1 7.9 320 16.6
2008-07-15 09:07:55 51°19.167 2°50.957 313.4 7.9 320 16.7
2008-07-15 09:07:59 51°19.173 2°50.947 310.5 7.8 313 16.6
2008-07-15 09:08:05 51°19.182 2°50.931 306.7 7.7 312 16.6
2008-07-15 09:08:10 51°19.188 2°50.918 304.3 7.8 309 16.6
2008-07-15 09:08:14 51°19.193 2°50.907 299.7 7.6 304 16.5
2008-07-15 09:08:19 51°19.199 2°50.892 296.5 7.6 302 16.3
2008-07-15 09:08:25 51°19.205 2°50.875 294.5 7.7 301 16.4
2008-07-15 09:08:30 51°19.209 2°50.859 292.1 7.7 297 16.2
2008-07-15 09:08:34 51°19.213 2°50.847 290 7.9 295 16.4
2008-07-15 09:08:39 51°19.218 2°50.831 288.3 7.9 294 16.3
2008-07-15 09:08:45 51°19.222 2°50.811 287.5 8 292 16.2
2008-07-15 09:08:50 51°19.227 2°50.794 286.5 8.1 292 16.5
2008-07-15 09:08:54 51°19.23 2°50.781 285.9 8.2 291 16.2
2008-07-15 09:08:59 51°19.234 2°50.764 285.7 8.1 292 16.1
2008-07-15 09:09:05 51°19.239 2°50.744 285.5 8.1 291 16.3
2008-07-15 09:09:10 51°19.243 2°50.727 285.1 8 291 15.8
2008-07-15 09:09:14 51°19.246 2°50.714 285.4 8.1 290 16
2008-07-15 09:09:19 51°19.25 2°50.697 284.9 8.1 290 15.8
2008-07-15 09:09:24 51°19.253 2°50.68 284.7 8.2 290 15.5
2008-07-15 09:09:30 51°19.258 2°50.659 284.6 8.4 290 15.8
2008-07-15 09:09:35 51°19.262 2°50.642 284.9 8.3 291 15.3
2008-07-15 09:09:39 51°19.266 2°50.628 286.2 8.3 291 15.2
2008-07-15 09:09:45 51°19.27 2°50.607 286 8.4 290 14.8
2008-07-15 09:09:50 51°19.275 2°50.59 286.3 8.4 292 14.9
2008-07-15 09:09:54 51°19.278 2°50.576 286.8 8.5 291 14.8
2008-07-15 09:09:59 51°19.283 2°50.558 287.1 8.5 292 14.5
2008-07-15 09:10:05 51°19.288 2°50.537 287.5 8.5 292 14.7
2008-07-15 09:10:10 51°19.293 2°50.52 287.9 8.5 293 14.8
2008-07-15 09:10:15 51°19.297 2°50.502 288.1 8.5 292 14.8
2008-07-15 09:10:19 51°19.301 2°50.488 287.9 8.6 293 14.6
2008-07-15 09:10:24 51°19.305 2°50.471 287.4 8.5 292 14.7
2008-07-15 09:10:30 51°19.311 2°50.45 287.7 8.6 293 14.7
2008-07-15 09:10:34 51°19.315 2°50.436 288 8.6 292 14.5
2008-07-15 09:10:39 51°19.319 2°50.418 287.9 8.6 292 14.4
2008-07-15 09:10:45 51°19.324 2°50.397 287.3 8.6 291 13.9
2008-07-15 09:10:50 51°19.328 2°50.379 287.4 8.6 291 13.6
2008-07-15 09:10:54 51°19.332 2°50.365 287.5 8.6 291 13.5
2008-07-15 09:10:59 51°19.336 2°50.348 287.7 8.6 292 13.5
2008-07-15 09:11:05 51°19.342 2°50.327 288.7 8.6 294 13.6
2008-07-15 09:11:10 51°19.347 2°50.31 288.9 8.5 294 13.7
2008-07-15 09:11:14 51°19.351 2°50.296 289.5 8.5 294 13.8
2008-07-15 09:11:19 51°19.355 2°50.279 289 8.3 294 13.5
2008-07-15 09:11:24 51°19.36 2°50.262 289.5 8.4 295 13.4
2008-07-15 09:11:30 51°19.366 2°50.242 289.4 8.3 294 13
2008-07-15 09:11:35 51°19.371 2°50.225 289.8 8.3 294 14.1
2008-07-15 09:11:39 51°19.374 2°50.212 289.1 8.3 293 13.4
2008-07-15 09:11:44 51°19.379 2°50.195 289.4 8.3 295 13.8
2008-07-15 09:11:50 51°19.384 2°50.175 289.5 8.2 294 13.4
2008-07-15 09:11:54 51°19.388 2°50.162 289.6 8.2 294 13.6
2008-07-15 09:11:59 51°19.393 2°50.145 289.5 8.3 294 13.3
2008-07-15 09:12:05 51°19.398 2°50.125 289.5 8.3 294 13.2
2008-07-15 09:12:10 51°19.403 2°50.108 289.2 8.3 294 13.3
2008-07-15 09:12:15 51°19.408 2°50.092 289.5 8.3 295 12.9
2008-07-15 09:12:19 51°19.412 2°50.079 289.9 8.1 294 12.9
2008-07-15 09:12:24 51°19.416 2°50.062 289.9 8.2 294 13.2
2008-07-15 09:12:29 51°19.421 2°50.045 289 8.2 293 13.1
2008-07-15 09:12:35 51°19.426 2°50.025 288.9 8.3 293 13.6
2008-07-15 09:12:39 51°19.43 2°50.012 289.3 8.4 293 14.1
2008-07-15 09:12:45 51°19.435 2°49.992 289.3 8.4 294 14
2008-07-15 09:12:50 51°19.44 2°49.975 289.8 8.4 295 14.3
2008-07-15 09:12:54 51°19.444 2°49.961 289.7 8.4 294 14.5
2008-07-15 09:12:59 51°19.449 2°49.944 290 8.5 294 14.7
2008-07-15 09:13:05 51°19.455 2°49.923 289.6 8.5 294 14.9
2008-07-15 09:13:10 51°19.459 2°49.906 289.8 8.5 294 15.1
2008-07-15 09:13:14 51°19.463 2°49.892 289.7 8.6 294 15.2
2008-07-15 09:13:19 51°19.468 2°49.875 289.5 8.6 294 15.2
2008-07-15 09:13:25 51°19.473 2°49.854 289 8.6 292 15.3
2008-07-15 09:13:30 51°19.478 2°49.836 288.5 8.6 293 15.3
2008-07-15 09:13:35 51°19.482 2°49.818 288 8.6 292 15.4
2008-07-15 09:13:39 51°19.486 2°49.804 287.8 8.6 292 15.4
2008-07-15 09:13:45 51°19.491 2°49.783 287.8 8.6 291 15.5
2008-07-15 09:13:50 51°19.495 2°49.766 287.7 8.6 292 15.3
2008-07-15 09:13:54 51°19.499 2°49.752 287.5 8.6 292 15.3
2008-07-15 09:13:59 51°19.503 2°49.734 287.4 8.6 291 15.3
2008-07-15 09:14:05 51°19.508 2°49.713 287.1 8.5 290 15.4
2008-07-15 09:14:09 51°19.511 2°49.698 286.2 8.5 290 15.5
2008-07-15 09:14:15 51°19.516 2°49.678 285.9 8.4 291 15.6
2008-07-15 09:14:19 51°19.519 2°49.664 286 8.4 290 15.8
2008-07-15 09:14:24 51°19.523 2°49.647 286 8.2 290 15.8
2008-07-15 09:14:29 51°19.527 2°49.629 285.9 8.3 290 16.3
2008-07-15 09:14:35 51°19.532 2°49.608 285.7 8.3 290 16.3
2008-07-15 09:14:39 51°19.535 2°49.595 286.3 8.4 290 16.5
2008-07-15 09:14:45 51°19.54 2°49.574 286.3 8.4 290 16.4
2008-07-15 09:14:50 51°19.544 2°49.556 285.9 8.5 290 16.7
2008-07-15 09:14:55 51°19.549 2°49.539 285.8 8.3 291 16.5
2008-07-15 09:14:59 51°19.552 2°49.525 286.5 8.3 292 16.9
2008-07-15 09:15:05 51°19.557 2°49.504 286.6 8.4 290 17
2008-07-15 09:15:10 51°19.561 2°49.487 285.9 8.3 291 16.8
2008-07-15 09:15:14 51°19.564 2°49.474 286.5 8.4 291 17.2
2008-07-15 09:15:19 51°19.569 2°49.456 286 8.3 291 17
2008-07-15 09:15:25 51°19.574 2°49.436 286.5 8.4 292 17.2
2008-07-15 09:15:30 51°19.578 2°49.419 285.9 8.2 292 16.9
2008-07-15 09:15:35 51°19.582 2°49.401 286.7 8.3 291 17.1
2008-07-15 09:15:39 51°19.585 2°49.388 285.7 8.3 290 17.1
2008-07-15 09:15:45 51°19.59 2°49.367 285.3 8.3 290 17.1
2008-07-15 09:15:50 51°19.594 2°49.35 285.9 8.4 290 17.3
2008-07-15 09:15:54 51°19.597 2°49.336 285.9 8.3 290 17.3
2008-07-15 09:15:59 51°19.601 2°49.318 285.1 8.4 289 17.6
2008-07-15 09:16:05 51°19.605 2°49.297 284.4 8.5 288 17.6
2008-07-15 09:16:10 51°19.609 2°49.279 284.4 8.5 288 17.7
2008-07-15 09:16:14 51°19.611 2°49.265 284.1 8.5 288 18.1
2008-07-15 09:16:19 51°19.615 2°49.246 283.9 8.5 287 18.1
2008-07-15 09:16:24 51°19.619 2°49.229 283.9 8.5 288 18.3
2008-07-15 09:16:30 51°19.623 2°49.207 283.7 8.6 287 18.6
2008-07-15 09:16:35 51°19.626 2°49.189 283.6 8.5 288 18.7
2008-07-15 09:16:39 51°19.629 2°49.175 283.7 8.6 288 18.9
2008-07-15 09:16:45 51°19.634 2°49.153 283.8 8.4 289 18.8
2008-07-15 09:16:50 51°19.638 2°49.136 283.9 8.4 289 19.2
2008-07-15 09:16:54 51°19.641 2°49.122 284.3 8.1 289 18.9
2008-07-15 09:16:59 51°19.644 2°49.105 284.7 8.2 288 19.2
2008-07-15 09:17:05 51°19.648 2°49.084 283.7 8.3 287 19.3
2008-07-15 09:17:09 51°19.651 2°49.07 283.4 8.3 288 19.3
2008-07-15 09:17:15 51°19.656 2°49.049 283.9 8.3 288 19.3
2008-07-15 09:17:19 51°19.659 2°49.035 284 8.4 289 19.5
2008-07-15 09:17:25 51°19.663 2°49.014 284 8.5 289 19.6
2008-07-15 09:17:30 51°19.667 2°48.996 284.1 8.5 288 19.8
2008-07-15 09:17:34 51°19.669 2°48.982 283.7 8.5 288 19.9
2008-07-15 09:17:39 51°19.673 2°48.964 283.6 8.5 288 20
2008-07-15 09:17:45 51°19.678 2°48.943 283.9 8.4 290 20.2
2008-07-15 09:17:50 51°19.681 2°48.926 284.5 8.4 288 20.1
2008-07-15 09:17:54 51°19.685 2°48.911 284.4 8.4 289 20.3
2008-07-15 09:17:59 51°19.688 2°48.894 283.9 8.5 288 20.5
2008-07-15 09:18:05 51°19.693 2°48.872 283.9 8.4 288 20.4
2008-07-15 09:18:10 51°19.696 2°48.854 284 8.5 288 20.5
2008-07-15 09:18:14 51°19.699 2°48.84 283.8 8.5 288 20.5
2008-07-15 09:18:19 51°19.703 2°48.822 283.7 8.6 288 20.8
2008-07-15 09:18:24 51°19.707 2°48.804 283.9 8.6 288 20.9
2008-07-15 09:18:30 51°19.711 2°48.783 284.1 8.5 288 20.8
2008-07-15 09:18:35 51°19.715 2°48.765 284.3 8.4 290 21
2008-07-15 09:18:39 51°19.718 2°48.751 284.5 8.4 289 21.2
2008-07-15 09:18:45 51°19.722 2°48.73 284.4 8.4 289 21.1
2008-07-15 09:18:50 51°19.726 2°48.713 284.1 8.4 290 21.4
2008-07-15 09:18:54 51°19.729 2°48.699 284.6 8.4 289 21.7
2008-07-15 09:18:59 51°19.733 2°48.681 284.3 8.4 288 21.8
2008-07-15 09:19:05 51°19.737 2°48.66 283.7 8.3 288 21.7
2008-07-15 09:19:09 51°19.74 2°48.645 283.7 8.4 288 22.1
2008-07-15 09:19:15 51°19.744 2°48.624 283.4 8.5 287 22.1
2008-07-15 09:19:19 51°19.747 2°48.61 283.4 8.5 288 22.2
2008-07-15 09:19:25 51°19.752 2°48.588 283.4 8.5 288 22.4
2008-07-15 09:19:30 51°19.755 2°48.57 283.4 8.6 288 22.5
2008-07-15 09:19:34 51°19.758 2°48.555 284 8.6 289 22.6
2008-07-15 09:19:39 51°19.762 2°48.538 284.4 8.6 289 22.9
2008-07-15 09:19:45 51°19.767 2°48.516 284.4 8.5 289 22.9
2008-07-15 09:19:49 51°19.77 2°48.502 284.3 8.5 288 23
2008-07-15 09:19:54 51°19.773 2°48.484 284.4 8.6 289 23.1
2008-07-15 09:19:59 51°19.777 2°48.466 284.2 8.6 289 23.2
2008-07-15 09:20:05 51°19.782 2°48.444 284.2 8.6 289 23.2
2008-07-15 09:20:10 51°19.786 2°48.426 284.2 8.6 289 23.3
2008-07-15 09:20:14 51°19.789 2°48.412 284.5 8.6 290 23.3
2008-07-15 09:20:19 51°19.793 2°48.394 284.7 8.6 289 23.3
2008-07-15 09:20:24 51°19.797 2°48.375 284.5 8.7 289 23.5
2008-07-15 09:20:30 51°19.801 2°48.354 283.9 8.5 289 23.4
2008-07-15 09:20:35 51°19.805 2°48.336 284 8.5 289 23.6
2008-07-15 09:20:39 51°19.808 2°48.322 284.2 8.5 289 23.5
2008-07-15 09:20:45 51°19.813 2°48.301 284.3 8.5 289 23.6
2008-07-15 09:20:50 51°19.817 2°48.283 284.6 8.6 290 23.7
2008-07-15 09:20:54 51°19.82 2°48.268 284.3 8.5 289 23.5
2008-07-15 09:20:59 51°19.824 2°48.251 284.6 8.6 292 23.7
2008-07-15 09:21:04 51°19.828 2°48.233 284.9 8.5 290 23.8
2008-07-15 09:21:10 51°19.833 2°48.212 284.4 8.5 289 23.7
2008-07-15 09:21:15 51°19.837 2°48.194 284.1 8.5 290 23.7
2008-07-15 09:21:19 51°19.84 2°48.18 283.7 8.5 289 23.8
2008-07-15 09:21:24 51°19.844 2°48.162 283.8 8.6 289 23.8
2008-07-15 09:21:30 51°19.848 2°48.14 283.7 8.6 288 23.8
2008-07-15 09:21:35 51°19.852 2°48.122 283.4 8.6 288 23.9
2008-07-15 09:21:39 51°19.855 2°48.108 283.2 8.6 289 23.9
2008-07-15 09:21:45 51°19.86 2°48.086 283.6 8.5 288 23.7
2008-07-15 09:21:50 51°19.863 2°48.068 283.6 8.5 288 24
2008-07-15 09:21:54 51°19.866 2°48.054 283.3 8.6 288 23.9
2008-07-15 09:21:59 51°19.87 2°48.036 283.5 8.5 289 23.9
2008-07-15 09:22:05 51°19.875 2°48.014 283.9 8.6 289 23.9
2008-07-15 09:22:10 51°19.879 2°47.997 284.4 8.5 291 23.6
2008-07-15 09:22:14 51°19.882 2°47.983 284.8 8.5 290 24
2008-07-15 09:22:19 51°19.886 2°47.965 284.4 8.4 290 23.8
2008-07-15 09:22:25 51°19.891 2°47.944 284.2 8.5 290 23.9
2008-07-15 09:22:30 51°19.895 2°47.927 284.3 8.5 291 23.9
2008-07-15 09:22:35 51°19.899 2°47.909 284.6 8.5 290 23.9
2008-07-15 09:22:39 51°19.902 2°47.895 284.3 8.5 290 23.8
2008-07-15 09:22:45 51°19.907 2°47.874 284.2 8.5 290 23.8
2008-07-15 09:22:50 51°19.911 2°47.856 284.1 8.5 289 23.8
2008-07-15 09:22:54 51°19.914 2°47.842 283.8 8.5 289 23.7
2008-07-15 09:22:59 51°19.917 2°47.824 283.7 8.6 289 23.9
2008-07-15 09:23:05 51°19.923 2°47.802 283.8 8.6 290 23.8
2008-07-15 09:23:10 51°19.926 2°47.785 284.1 8.5 289 23.6
2008-07-15 09:23:15 51°19.931 2°47.767 284.4 8.6 290 23.9
2008-07-15 09:23:19 51°19.934 2°47.753 284.4 8.5 290 23.7
2008-07-15 09:23:24 51°19.938 2°47.736 284.4 8.4 290 23.8
2008-07-15 09:23:30 51°19.943 2°47.714 284.2 8.5 290 23.8
2008-07-15 09:23:35 51°19.947 2°47.697 284.1 8.4 290 23.6
2008-07-15 09:23:39 51°19.95 2°47.683 284.4 8.5 290 23.6
2008-07-15 09:23:45 51°19.955 2°47.662 284.6 8.6 291 23.8
2008-07-15 09:23:50 51°19.959 2°47.644 284.3 8.5 290 23.6
2008-07-15 09:23:55 51°19.963 2°47.626 283.9 8.5 290 23.6
2008-07-15 09:23:59 51°19.966 2°47.612 283.1 8.5 288 23.5
2008-07-15 09:24:05 51°19.97 2°47.591 282.2 8.4 288 23.7
2008-07-15 09:24:10 51°19.973 2°47.573 281.8 8.4 287 23.4
2008-07-15 09:24:14 51°19.976 2°47.558 281.2 8.4 286 23.5
2008-07-15 09:24:19 51°19.979 2°47.54 280.8 8.4 286 23.4
2008-07-15 09:24:25 51°19.983 2°47.519 280.1 8.4 285 23.3
2008-07-15 09:24:30 51°19.986 2°47.501 279.9 8.4 287 23.2
2008-07-15 09:24:35 51°19.989 2°47.484 280.1 8.4 286 23.1
2008-07-15 09:24:40 51°19.992 2°47.466 280.3 8.3 285 23
2008-07-15 09:24:45 51°19.995 2°47.448 280 8.3 285 22.9
2008-07-15 09:24:50 51°19.997 2°47.43 277.9 8.2 280 23
2008-07-15 09:24:54 51°19.998 2°47.416 275.6 8.2 281 22.8
2008-07-15 09:24:59 51°20 2°47.398 274.3 8.1 278 23
2008-07-15 09:25:05 51°20.002 2°47.377 272.7 8 278 22.9
2008-07-15 09:25:10 51°20.003 2°47.359 272.3 8 277 22.8
2008-07-15 09:25:15 51°20.004 2°47.341 271.4 8.1 274 22.8
2008-07-15 09:25:19 51°20.004 2°47.327 270.5 8.1 275 22.6
2008-07-15 09:25:24 51°20.005 2°47.309 270.1 8.2 274 22.6
2008-07-15 09:25:30 51°20.007 2°47.287 270.1 8.2 274 22.5
2008-07-15 09:25:35 51°20.008 2°47.269 270.2 8.2 275 22.2
2008-07-15 09:25:39 51°20.009 2°47.254 271.4 8.3 277 22.4
2008-07-15 09:25:45 51°20.011 2°47.232 272.5 8.3 278 22.2
2008-07-15 09:25:50 51°20.012 2°47.214 273.1 8.3 277 22.1
2008-07-15 09:25:54 51°20.013 2°47.2 273.5 8.4 279 22.3
2008-07-15 09:25:59 51°20.015 2°47.181 273.8 8.4 278 22.1
2008-07-15 09:26:05 51°20.017 2°47.159 274.2 8.4 279 22.2
2008-07-15 09:26:09 51°20.019 2°47.145 274.6 8.3 279 22.1
2008-07-15 09:26:15 51°20.02 2°47.123 274.4 8.3 278 21.9
2008-07-15 09:26:19 51°20.022 2°47.108 274.1 8.2 278 21.6
2008-07-15 09:26:25 51°20.024 2°47.087 274.3 8.3 279 20.6
2008-07-15 09:26:30 51°20.025 2°47.068 274.2 8.3 278 20.6
2008-07-15 09:26:34 51°20.026 2°47.054 273.6 8.4 277 21.1
2008-07-15 09:26:39 51°20.028 2°47.035 274 8.4 279 21.4
2008-07-15 09:26:45 51°20.03 2°47.013 274.7 8.4 280 21.2
2008-07-15 09:26:50 51°20.032 2°46.995 275 8.4 279 21.3
2008-07-15 09:26:54 51°20.034 2°46.98 274.7 8.5 279 21.4
2008-07-15 09:26:59 51°20.035 2°46.962 274.6 8.4 279 21.3
2008-07-15 09:27:05 51°20.037 2°46.939 274.7 8.4 278 21.1
2008-07-15 09:27:10 51°20.039 2°46.921 274.6 8.4 279 21.1
2008-07-15 09:27:14 51°20.04 2°46.906 274.7 8.4 279 20.7
2008-07-15 09:27:19 51°20.042 2°46.888 275.2 8.5 279 20.3
2008-07-15 09:27:25 51°20.045 2°46.866 275.2 8.4 279 19.6
2008-07-15 09:27:30 51°20.046 2°46.847 274.8 8.4 279 17.5
2008-07-15 09:27:35 51°20.048 2°46.829 274.7 8.3 280 19.1
2008-07-15 09:27:39 51°20.05 2°46.814 275 8.4 279 19.8
2008-07-15 09:27:45 51°20.052 2°46.792 275.1 8.4 279 19.7
2008-07-15 09:27:50 51°20.054 2°46.774 275 8.3 278 19.3
2008-07-15 09:27:54 51°20.055 2°46.759 274.8 8.3 278 18.1
2008-07-15 09:27:59 51°20.057 2°46.741 274.7 8.3 278 19
2008-07-15 09:28:05 51°20.059 2°46.719 274.4 8.4 278 19.5
2008-07-15 09:28:09 51°20.06 2°46.705 274.8 8.4 279 19
2008-07-15 09:28:15 51°20.062 2°46.682 275 8.4 279 18.2
2008-07-15 09:28:19 51°20.064 2°46.668 274.8 8.3 279 18.3
2008-07-15 09:28:25 51°20.066 2°46.646 275.7 8.4 280 18.5
2008-07-15 09:28:30 51°20.068 2°46.628 276.1 8.3 281 17.3
2008-07-15 09:28:35 51°20.071 2°46.611 276.3 8.2 281 16.4
2008-07-15 09:28:39 51°20.072 2°46.596 276.5 8.1 281 17.4
2008-07-15 09:28:45 51°20.075 2°46.575 276.3 8.1 280 17.7
2008-07-15 09:28:49 51°20.076 2°46.561 275.7 8.1 279 18.1
2008-07-15 09:28:54 51°20.078 2°46.543 275.1 8.2 279 18.4
2008-07-15 09:28:59 51°20.079 2°46.525 274.9 8.2 278 18
2008-07-15 09:29:05 51°20.082 2°46.503 274.9 8.2 278 16.6
2008-07-15 09:29:10 51°20.083 2°46.485 274.8 8.3 278 16.8
2008-07-15 09:29:14 51°20.084 2°46.47 274.8 8.3 278 15.4
2008-07-15 09:29:19 51°20.086 2°46.452 275 8.3 278 16.7
2008-07-15 09:29:25 51°20.089 2°46.43 275.3 8.3 279 17
2008-07-15 09:29:30 51°20.091 2°46.412 275.3 8.3 279 15.6
2008-07-15 09:29:35 51°20.092 2°46.394 274.9 8.1 279 16.4
2008-07-15 09:29:39 51°20.094 2°46.38 274.7 8.2 279 17
2008-07-15 09:29:45 51°20.095 2°46.359 274.4 8 278 17
2008-07-15 09:29:50 51°20.097 2°46.341 274.6 8.1 279 17
2008-07-15 09:29:54 51°20.099 2°46.327 274.7 8 278 16.6
2008-07-15 09:29:59 51°20.1 2°46.309 275 8.1 278 16.4
2008-07-15 09:30:04 51°20.102 2°46.291 275 8.1 278 14.8
2008-07-15 09:30:09 51°20.103 2°46.273 274.9 8.2 278 14.8
2008-07-15 09:30:15 51°20.105 2°46.252 275 8.1 279 16.2
2008-07-15 09:30:19 51°20.107 2°46.238 275.1 8.1 279 17
2008-07-15 09:30:25 51°20.109 2°46.217 275.1 8.1 278 15.7
2008-07-15 09:30:30 51°20.11 2°46.199 274.9 8.1 278 15.8
2008-07-15 09:30:35 51°20.112 2°46.181 274.7 8.2 278 16.9
2008-07-15 09:30:39 51°20.113 2°46.166 274.8 8.3 279 17.5
2008-07-15 09:30:45 51°20.115 2°46.145 275 8.3 279 16.8
2008-07-15 09:30:49 51°20.117 2°46.13 275.1 8.3 279 15.3
2008-07-15 09:30:54 51°20.119 2°46.112 275.2 8.4 280 16
2008-07-15 09:30:59 51°20.121 2°46.094 275.2 8.4 279 16.8
2008-07-15 09:31:05 51°20.123 2°46.071 275 8.4 279 17.1
2008-07-15 09:31:10 51°20.124 2°46.053 275.1 8.4 279 17.2
2008-07-15 09:31:14 51°20.126 2°46.038 275 8.6 279 17.6
2008-07-15 09:31:19 51°20.128 2°46.019 275.2 8.5 279 17.7
2008-07-15 09:31:25 51°20.13 2°45.997 275.6 8.5 280 18.3
2008-07-15 09:31:30 51°20.132 2°45.979 275.1 8.4 280 16.7
2008-07-15 09:31:34 51°20.134 2°45.964 275.7 8.5 280 16.4
2008-07-15 09:31:39 51°20.136 2°45.945 275.5 8.5 280 16.5
2008-07-15 09:31:45 51°20.138 2°45.923 274.9 8.4 279 16.3
2008-07-15 09:31:50 51°20.14 2°45.905 274.9 8.3 281 15.2
2008-07-15 09:31:54 51°20.142 2°45.891 275.9 8.4 280 16
2008-07-15 09:31:59 51°20.144 2°45.872 275.5 8.4 280 16.3
2008-07-15 09:32:04 51°20.145 2°45.854 275.5 8.4 279 17
2008-07-15 09:32:10 51°20.148 2°45.832 275 8.4 280 17.4
2008-07-15 09:32:15 51°20.15 2°45.813 275.5 8.4 280 17.9
2008-07-15 09:32:19 51°20.151 2°45.799 275.3 8.5 279 18.2
2008-07-15 09:32:25 51°20.154 2°45.777 274.9 8.5 279 18.5
2008-07-15 09:32:30 51°20.156 2°45.758 274.9 8.5 280 19.1
2008-07-15 09:32:35 51°20.157 2°45.739 275 8.5 280 19.2
2008-07-15 09:32:39 51°20.159 2°45.725 275.5 8.5 280 17.9
2008-07-15 09:32:45 51°20.161 2°45.702 275.5 8.5 279 14.3
2008-07-15 09:32:50 51°20.163 2°45.684 275.2 8.4 280 15.9
2008-07-15 09:32:55 51°20.166 2°45.665 275.5 8.5 281 18.6
2008-07-15 09:32:59 51°20.168 2°45.651 275.7 8.4 281 20.1
2008-07-15 09:33:05 51°20.17 2°45.629 275.7 8.4 280 21.1
2008-07-15 09:33:10 51°20.172 2°45.61 275.4 8.5 281 21.6
2008-07-15 09:33:14 51°20.174 2°45.596 275 8.4 280 22
2008-07-15 09:33:19 51°20.176 2°45.577 275 8.4 280 22.4
2008-07-15 09:33:25 51°20.178 2°45.555 275.3 8.5 280 22.8
2008-07-15 09:33:30 51°20.181 2°45.537 275.5 8.5 280 23
2008-07-15 09:33:34 51°20.182 2°45.522 275.5 8.6 281 23.4
2008-07-15 09:33:39 51°20.184 2°45.503 275.6 8.7 281 23.5
2008-07-15 09:33:45 51°20.187 2°45.48 275.6 8.7 281 23.6
2008-07-15 09:33:50 51°20.189 2°45.461 276 8.7 281 23.7
2008-07-15 09:33:54 51°20.191 2°45.446 275.8 8.7 280 23.9
2008-07-15 09:33:59 51°20.193 2°45.427 275.7 8.7 280 23.9
2008-07-15 09:34:05 51°20.196 2°45.404 275.4 8.7 280 24
2008-07-15 09:34:10 51°20.198 2°45.385 275 8.7 280 24.1
2008-07-15 09:34:15 51°20.2 2°45.366 275 8.8 280 24.2
2008-07-15 09:34:19 51°20.201 2°45.351 275.1 8.8 279 24.2
2008-07-15 09:34:24 51°20.203 2°45.332 274.2 8.6 277 24.3
2008-07-15 09:34:30 51°20.205 2°45.309 272.8 8.7 277 24.5
2008-07-15 09:34:34 51°20.205 2°45.294 272.3 8.6 276 24.6
2008-07-15 09:34:39 51°20.207 2°45.275 271.7 8.6 275 24.6
2008-07-15 09:34:45 51°20.208 2°45.252 271.3 8.6 275 24.9
2008-07-15 09:34:50 51°20.209 2°45.233 270.6 8.6 275 24.9
2008-07-15 09:34:55 51°20.21 2°45.213 270.1 8.7 273 24.9
2008-07-15 09:34:59 51°20.211 2°45.198 270.4 8.7 276 25
2008-07-15 09:35:04 51°20.212 2°45.179 271.4 8.7 275 25.2
2008-07-15 09:35:10 51°20.214 2°45.155 271.6 8.8 276 25.3
2008-07-15 09:35:15 51°20.215 2°45.136 271.7 8.8 276 25.3
2008-07-15 09:35:19 51°20.216 2°45.121 272.2 8.8 276 25.3
2008-07-15 09:35:25 51°20.218 2°45.098 272.8 8.8 277 25.5
2008-07-15 09:35:30 51°20.22 2°45.078 273.7 8.7 279 25.5
2008-07-15 09:35:34 51°20.221 2°45.063 274.1 8.7 279 25.6
2008-07-15 09:35:39 51°20.223 2°45.044 274.1 8.7 278 25.8
2008-07-15 09:35:45 51°20.224 2°45.021 273.8 8.7 278 25.8
2008-07-15 09:35:49 51°20.226 2°45.006 273.7 8.8 278 25.9
2008-07-15 09:35:54 51°20.227 2°44.987 273.5 8.7 278 26
2008-07-15 09:35:59 51°20.229 2°44.967 273.1 8.8 277 26
2008-07-15 09:36:05 51°20.231 2°44.944 273 8.8 277 26
2008-07-15 09:36:10 51°20.232 2°44.925 272.7 8.8 276 26.1
2008-07-15 09:36:15 51°20.233 2°44.906 272.3 8.7 276 26
2008-07-15 09:36:19 51°20.234 2°44.89 272.1 8.8 277 26.2
2008-07-15 09:36:25 51°20.236 2°44.867 272.4 8.7 277 26.1
2008-07-15 09:36:30 51°20.238 2°44.848 272.6 8.8 277 26.3
2008-07-15 09:36:34 51°20.239 2°44.833 273.3 8.7 279 26.3
2008-07-15 09:36:39 51°20.24 2°44.814 273.7 8.6 278 26.3
2008-07-15 09:36:45 51°20.242 2°44.791 273.5 8.7 278 26.5
2008-07-15 09:36:50 51°20.244 2°44.772 273 8.7 277 26.3
2008-07-15 09:36:55 51°20.245 2°44.753 273 8.7 277 26.5
2008-07-15 09:36:59 51°20.246 2°44.738 272.9 8.6 278 26.4
2008-07-15 09:37:04 51°20.248 2°44.719 273.4 8.7 277 26.5
2008-07-15 09:37:10 51°20.25 2°44.696 273 8.7 277 26.7
2008-07-15 09:37:15 51°20.251 2°44.677 272.7 8.7 277 26.7
2008-07-15 09:37:19 51°20.253 2°44.661 273.2 8.7 278 26.8
2008-07-15 09:37:25 51°20.255 2°44.639 273.6 8.7 279 26.9
2008-07-15 09:37:30 51°20.256 2°44.619 273.7 8.7 278 26.8
2008-07-15 09:37:35 51°20.258 2°44.6 273.5 8.7 278 27
2008-07-15 09:37:39 51°20.259 2°44.585 273.4 8.8 277 27
2008-07-15 09:37:45 51°20.261 2°44.562 273.3 8.8 278 27.1
2008-07-15 09:37:49 51°20.262 2°44.546 273.2 8.8 277 27.2
2008-07-15 09:37:54 51°20.264 2°44.527 273.2 8.8 278 27.3
2008-07-15 09:37:59 51°20.266 2°44.508 273.5 8.7 278 27.4
2008-07-15 09:38:05 51°20.268 2°44.485 273.6 8.7 279 27.5
2008-07-15 09:38:10 51°20.27 2°44.466 273.9 8.7 278 27.8
2008-07-15 09:38:15 51°20.272 2°44.447 273.7 8.7 278 28
2008-07-15 09:38:19 51°20.273 2°44.432 273.5 8.7 279 28
2008-07-15 09:38:25 51°20.275 2°44.409 273.8 8.6 279 28.1
2008-07-15 09:38:30 51°20.277 2°44.39 273.9 8.6 278 27.8
2008-07-15 09:38:34 51°20.278 2°44.375 273.7 8.7 278 27.8
2008-07-15 09:38:39 51°20.28 2°44.356 273.3 8.6 279 27.8
2008-07-15 09:38:45 51°20.283 2°44.334 273.5 8.6 279 28.2
2008-07-15 09:38:50 51°20.284 2°44.315 273.5 8.6 279 28
2008-07-15 09:38:55 51°20.286 2°44.296 273.6 8.6 279 28.2
2008-07-15 09:38:59 51°20.288 2°44.281 273.6 8.6 279 28.3
2008-07-15 09:39:04 51°20.289 2°44.262 273.5 8.6 278 28.6
2008-07-15 09:39:10 51°20.291 2°44.24 273.5 8.6 278 28.5
2008-07-15 09:39:15 51°20.293 2°44.22 273.3 8.7 279 28.6
2008-07-15 09:39:19 51°20.295 2°44.205 273.7 8.7 278 28.6
2008-07-15 09:39:25 51°20.297 2°44.182 273.5 8.7 277 28.5
2008-07-15 09:39:30 51°20.298 2°44.163 273.1 8.7 278 28.5
2008-07-15 09:39:34 51°20.3 2°44.148 272.8 8.7 278 28.6
2008-07-15 09:39:39 51°20.302 2°44.129 273.2 8.6 279 28.7
2008-07-15 09:39:45 51°20.304 2°44.107 273.3 8.7 278 28.6
2008-07-15 09:39:49 51°20.305 2°44.091 272.7 8.7 277 28.6
2008-07-15 09:39:55 51°20.307 2°44.069 272.4 8.7 278 28.6
2008-07-15 09:39:59 51°20.308 2°44.053 272.3 8.7 278 28.7
2008-07-15 09:40:05 51°20.31 2°44.031 272.7 8.7 278 28.7
2008-07-15 09:40:10 51°20.312 2°44.011 272.8 8.7 277 28.7
2008-07-15 09:40:14 51°20.313 2°43.996 272.4 8.7 277 28.9
2008-07-15 09:40:20 51°20.315 2°43.973 272.3 8.8 277 28.9
2008-07-15 09:40:25 51°20.316 2°43.954 272.4 8.7 277 28.6
2008-07-15 09:40:30 51°20.318 2°43.935 272.1 8.7 276 28.6
2008-07-15 09:40:34 51°20.319 2°43.92 271.7 8.7 276 28.7
2008-07-15 09:40:39 51°20.32 2°43.9 271.5 8.7 276 28.7
2008-07-15 09:40:45 51°20.322 2°43.877 271.7 8.8 277 28.7
2008-07-15 09:40:50 51°20.323 2°43.858 272 8.7 277 28.6
2008-07-15 09:40:54 51°20.325 2°43.843 272.4 8.6 278 28.8
2008-07-15 09:40:59 51°20.326 2°43.824 272.3 8.6 277 28.7
2008-07-15 09:41:05 51°20.328 2°43.802 272 8.6 278 28.6
2008-07-15 09:41:10 51°20.33 2°43.783 272.1 8.7 278 28.9
2008-07-15 09:41:15 51°20.331 2°43.764 272.6 8.5 279 28.5
2008-07-15 09:41:19 51°20.333 2°43.749 272.8 8.6 278 28.7
2008-07-15 09:41:25 51°20.335 2°43.726 272.5 8.6 277 28.7
2008-07-15 09:41:30 51°20.336 2°43.708 272.1 8.6 278 28.6
2008-07-15 09:41:34 51°20.337 2°43.692 272.1 8.6 277 28.6
2008-07-15 09:41:39 51°20.339 2°43.674 271.8 8.6 277 28.4
2008-07-15 09:41:45 51°20.341 2°43.651 271.9 8.6 277 28.7
2008-07-15 09:41:49 51°20.342 2°43.636 271.5 8.5 277 28.9
2008-07-15 09:41:55 51°20.344 2°43.614 271.5 8.5 277 28.8
2008-07-15 09:41:59 51°20.345 2°43.599 271.4 8.5 276 28.6
2008-07-15 09:42:05 51°20.346 2°43.576 271.1 8.5 277 28.6
2008-07-15 09:42:10 51°20.348 2°43.557 271.4 8.6 277 28.9
2008-07-15 09:42:14 51°20.35 2°43.543 272 8.4 279 28.7
2008-07-15 09:42:19 51°20.351 2°43.524 272.5 8.5 278 29
2008-07-15 09:42:25 51°20.353 2°43.502 272.7 8.5 279 29
2008-07-15 09:42:30 51°20.355 2°43.484 272.7 8.5 279 28.9
2008-07-15 09:42:34 51°20.357 2°43.469 272.8 8.5 279 28.9
2008-07-15 09:42:39 51°20.358 2°43.45 272.8 8.5 278 28.7
2008-07-15 09:42:45 51°20.36 2°43.428 272.6 8.5 278 28.5
2008-07-15 09:42:50 51°20.362 2°43.409 272.3 8.6 278 28.4
2008-07-15 09:42:54 51°20.363 2°43.394 272 8.5 277 28.3
2008-07-15 09:42:59 51°20.365 2°43.375 272 8.6 278 28.2
2008-07-15 09:43:05 51°20.367 2°43.352 272.1 8.6 278 28.2
2008-07-15 09:43:10 51°20.368 2°43.334 272.2 8.6 278 28.1
2008-07-15 09:43:15 51°20.37 2°43.315 272.4 8.6 278 28.2
2008-07-15 09:43:19 51°20.371 2°43.3 272.4 8.6 278 28.1
2008-07-15 09:43:25 51°20.373 2°43.277 272.7 8.6 278 27.9
2008-07-15 09:43:30 51°20.375 2°43.258 272.8 8.6 278 27.8
2008-07-15 09:43:34 51°20.376 2°43.243 272.4 8.7 278 27.8
2008-07-15 09:43:39 51°20.378 2°43.224 272 8.6 276 27.8
2008-07-15 09:43:45 51°20.379 2°43.201 271.5 8.7 276 27.8
2008-07-15 09:43:50 51°20.38 2°43.182 270.9 8.6 276 27.8
2008-07-15 09:43:55 51°20.382 2°43.163 271.2 8.7 277 27.7
2008-07-15 09:43:59 51°20.383 2°43.148 271.4 8.6 276 27.5
2008-07-15 09:44:05 51°20.385 2°43.125 271.5 8.6 276 27.5
2008-07-15 09:44:10 51°20.386 2°43.106 271.2 8.7 276 27.4
2008-07-15 09:44:15 51°20.387 2°43.087 271.1 8.6 276 27.3
2008-07-15 09:44:19 51°20.388 2°43.072 270.9 8.6 275 27.3
2008-07-15 09:44:25 51°20.389 2°43.049 271.1 8.6 277 27.2
2008-07-15 09:44:29 51°20.39 2°43.034 271.2 8.5 276 27.3
2008-07-15 09:44:34 51°20.392 2°43.015 271.8 8.6 277 27.1
2008-07-15 09:44:39 51°20.393 2°42.997 271.3 8.4 276 27.1
2008-07-15 09:44:45 51°20.395 2°42.974 271.9 8.5 277 27.2
2008-07-15 09:44:50 51°20.396 2°42.956 271.7 8.5 277 26.9
2008-07-15 09:44:54 51°20.397 2°42.941 271.9 8.4 277 26.4
2008-07-15 09:44:59 51°20.399 2°42.922 271.8 8.5 276 25.5
2008-07-15 09:45:05 51°20.4 2°42.9 271.7 8.5 277 25.7
2008-07-15 09:45:10 51°20.401 2°42.881 271.4 8.5 276 25.5
2008-07-15 09:45:15 51°20.403 2°42.862 271.6 8.5 276 24.7
2008-07-15 09:45:19 51°20.404 2°42.847 271.5 8.5 275 22.8
2008-07-15 09:45:25 51°20.405 2°42.825 271 8.5 276 24.3
2008-07-15 09:45:30 51°20.406 2°42.806 270.9 8.5 275 25.1
2008-07-15 09:45:34 51°20.407 2°42.791 270.5 8.5 274 25.5
2008-07-15 09:45:39 51°20.408 2°42.772 269.9 8.5 274 25.7
2008-07-15 09:45:44 51°20.408 2°42.753 269.2 8.5 272 25.6
2008-07-15 09:45:50 51°20.409 2°42.731 269.5 8.6 275 25.6
2008-07-15 09:45:55 51°20.41 2°42.711 269.6 8.5 274 25.5
2008-07-15 09:45:59 51°20.411 2°42.696 270.4 8.6 275 25.3
2008-07-15 09:46:05 51°20.412 2°42.674 270.5 8.6 274 22.8
2008-07-15 09:46:10 51°20.412 2°42.654 269.9 8.6 273 22.7
2008-07-15 09:46:15 51°20.413 2°42.635 269.7 8.7 274 23.7
2008-07-15 09:46:19 51°20.414 2°42.62 270 8.7 274 24.3
2008-07-15 09:46:25 51°20.415 2°42.597 269.9 8.7 274 24.7
2008-07-15 09:46:29 51°20.416 2°42.582 270.4 8.7 275 24.5
2008-07-15 09:46:35 51°20.417 2°42.559 270.6 8.7 274 22.1
2008-07-15 09:46:39 51°20.418 2°42.543 270.6 8.7 274 23
2008-07-15 09:46:45 51°20.418 2°42.52 270.4 8.7 274 24
2008-07-15 09:46:50 51°20.42 2°42.501 270.1 8.6 274 24.3
2008-07-15 09:46:54 51°20.42 2°42.486 270.1 8.6 274 23.9
2008-07-15 09:46:59 51°20.421 2°42.467 270.2 8.6 274 21.4
2008-07-15 09:47:05 51°20.422 2°42.444 270.2 8.6 274 21.5
2008-07-15 09:47:10 51°20.423 2°42.425 270.3 8.7 275 22.1
2008-07-15 09:47:15 51°20.424 2°42.406 270.5 8.6 274 22.8
2008-07-15 09:47:19 51°20.424 2°42.391 270.7 8.6 274 23
2008-07-15 09:47:25 51°20.426 2°42.368 270.3 8.6 275 23.1
2008-07-15 09:47:30 51°20.427 2°42.349 270.6 8.6 276 22.1
2008-07-15 09:47:34 51°20.428 2°42.334 270.9 8.5 276 21.1
2008-07-15 09:47:39 51°20.429 2°42.316 271.1 8.5 274 21.6
2008-07-15 09:47:44 51°20.43 2°42.297 270.4 8.5 275 21.8
2008-07-15 09:47:50 51°20.431 2°42.275 270.3 8.4 274 21.6
2008-07-15 09:47:55 51°20.431 2°42.256 270 8.5 274 21.3
2008-07-15 09:47:59 51°20.432 2°42.241 269.9 8.4 273 21.3
2008-07-15 09:48:05 51°20.433 2°42.219 269.8 8.5 274 20.6
2008-07-15 09:48:10 51°20.434 2°42.2 269.9 8.5 274 18.7
2008-07-15 09:48:15 51°20.435 2°42.182 270.2 8.4 274 17.5
2008-07-15 09:48:19 51°20.435 2°42.167 269.9 8.3 274 19.1
2008-07-15 09:48:25 51°20.436 2°42.145 270.2 8.3 276 20.6
2008-07-15 09:48:30 51°20.437 2°42.126 270.2 8.3 274 20.6
2008-07-15 09:48:35 51°20.438 2°42.108 270.5 8.2 276 18.3
2008-07-15 09:48:39 51°20.439 2°42.094 270.5 8.2 275 19.4
2008-07-15 09:48:44 51°20.44 2°42.076 270.6 8.2 276 20.2
2008-07-15 09:48:50 51°20.442 2°42.054 270.8 8.2 276 20.5
2008-07-15 09:48:55 51°20.442 2°42.036 271 8.2 275 20.7
2008-07-15 09:48:59 51°20.443 2°42.021 270.5 8.3 275 21.4
2008-07-15 09:49:05 51°20.445 2°41.999 270.8 8.3 276 20.4
2008-07-15 09:49:10 51°20.446 2°41.981 271.4 8.3 276 20.7
2008-07-15 09:49:14 51°20.447 2°41.967 272 8.3 278 21.3
2008-07-15 09:49:19 51°20.449 2°41.948 272.1 8.2 277 21.3
2008-07-15 09:49:25 51°20.45 2°41.927 272.4 8.2 277 19
2008-07-15 09:49:30 51°20.452 2°41.909 272.4 8.3 277 21
2008-07-15 09:49:34 51°20.453 2°41.894 272.4 8.2 278 21.8
2008-07-15 09:49:39 51°20.455 2°41.876 272.8 8.2 278 22.5
2008-07-15 09:49:45 51°20.457 2°41.854 272.8 8.3 278 21.3